• Join FlightAware (Why Join?)
  • Login
  • US Flag 
09:37PM EDT


 

Airport Tracker/Info


-or-


 

Live Flight TrackerFlight Track Log ✈ N82423 ✈ 27-Apr-2013 ✈ KBTL - KPLN

Flight Track Log - Related Links

Times and Time Zones

All times are in EDT time to prevent confusion due to time zone crossing. See the N82423 flight status page for this flight to view local times or setup timezone preferences in your user account.

Time Position Orientation Groundspeed Altitude Reporting Facility
EDT Latitude Longitude Course Direction KTS MPH feet Rate Location/Type
05:57PM 42.4344 -85.3136 North 119 137 5,500  Level Chicago Center
05:58PM 42.4725 -85.3031 12° North 134 154 5,600 60 Climbing Chicago Center
05:59PM 42.5128 -85.2958 North 143 165 5,700  Climbing Chicago Center
06:00PM 42.5561 -85.2892 North 154 177 5,600 -120 Descending Chicago Center
06:01PM 42.3144 -85.2490 North  Level Estimated
06:01PM 42.6075 -85.2831 North 155 178 5,500  Level Chicago Center
06:02PM 42.3556 -85.2427 North  Level FlightAware Approximate
06:02PM 42.6500 -85.2764 North 155 178 5,600  Level Chicago Center
06:03PM 42.6906 -85.2717 North 150 173 5,600  Level Chicago Center
06:04PM 42.7303 -85.2633 North 146 168 5,600  Level Chicago Center
06:05PM 42.7722 -85.2589 North 149 171 5,600  Level Chicago Center
06:06PM 42.8156 -85.2547 North 155 178 5,600  Level Chicago Center
06:07PM 42.8650 -85.2514 North 151 174 5,600  Level Chicago Center
06:08PM 42.9067 -85.2428 North 150 173 5,600  Level Chicago Center
06:09PM 42.9500 -85.2364 North 156 180 5,600  Level Chicago Center
06:10PM 42.9914 -85.2314 North 152 175 5,600  Level Chicago Center
06:11PM 43.0325 -85.2247 North 149 171 5,600  Level Chicago Center
06:12PM 43.0739 -85.2189 North 150 173 5,600  Level Chicago Center
06:13PM 43.1233 -85.2083 North 151 174 5,600  Level Chicago Center
06:14PM 43.1653 -85.1981 10° North 152 175 5,600  Level Chicago Center
06:15PM 43.2061 -85.1872 11° North 152 175 5,600  Level Chicago Center
06:16PM 43.2478 -85.1775 10° North 151 174 5,600  Level Chicago Center
06:17PM 43.2886 -85.1672 10° North 150 173 5,600  Level Chicago Center
06:18PM 43.3303 -85.1558 11° North 151 174 5,600  Level Chicago Center
06:19PM 43.3711 -85.1478 North 150 173 5,600  Level Chicago Center
06:20PM 43.3961 -85.1431 North 150 173 5,600  Level Minneapolis Center
06:21PM 43.4381 -85.1367 North 151 174 5,600 -60 Level Minneapolis Center
06:22PM 43.4803 -85.1311 North 152 175 5,500 -60 Descending Minneapolis Center
06:23PM 43.5219 -85.1261 North 151 174 5,500  Level Minneapolis Center
06:24PM 43.5644 -85.1214 North 152 175 5,600  Climbing Minneapolis Center
06:25PM 43.6067 -85.1178 North 152 175 5,600  Level Minneapolis Center
06:26PM 43.6583 -85.1119 North 154 177 5,600 -60 Level Minneapolis Center
06:27PM 43.6997 -85.1069 North 153 176 5,500  Descending Minneapolis Center
06:28PM 43.7406 -85.1031 North 151 174 5,600  Climbing Minneapolis Center
06:29PM 43.7825 -85.0975 North 150 173 5,600  Level Minneapolis Center
06:30PM 43.8233 -85.0922 North 150 173 5,600  Level Minneapolis Center
06:31PM 43.8628 -85.0708 21° North 151 174 5,600  Level Minneapolis Center
06:32PM 43.8978 -85.0764 353° North 163 188 5,600  Level Minneapolis Center
06:33PM 43.9478 -85.0714 North 154 177 5,600  Level Minneapolis Center
06:34PM 43.9894 -85.0653 North 153 176 5,600  Level Minneapolis Center
06:35PM 44.0314 -85.0572 North 151 174 5,600 -60 Level Minneapolis Center
06:36PM 44.0728 -85.0508 North 151 174 5,500  Descending Minneapolis Center
06:37PM 44.1142 -85.0428 North 151 174 5,600  Climbing Minneapolis Center
06:38PM 44.1556 -85.0364 North 150 173 5,600  Level Minneapolis Center
06:39PM 44.1992 -85.0294 North 154 177 5,600  Level Minneapolis Center
06:40PM 44.2492 -85.0211 North 153 176 5,600  Level Minneapolis Center
06:41PM 44.2922 -85.0144 North 154 177 5,600  Level Minneapolis Center
06:42PM 44.3347 -85.0067 North 155 178 5,600 -60 Level Minneapolis Center
06:43PM 44.3769 -84.9989 North 154 177 5,500 -60 Descending Minneapolis Center
06:44PM 44.4203 -84.9919 North 155 178 5,500  Level Minneapolis Center
06:46PM 44.4625 -84.9858 North 155 178 5,600  Climbing Minneapolis Center
06:47PM 44.5114 -84.9772 North 152 175 5,600  Level Minneapolis Center
06:48PM 44.5550 -84.9697 North 153 176 5,600  Level Minneapolis Center
06:49PM 44.6058 -84.9608 North 154 177 5,600  Level Minneapolis Center
06:50PM 44.6489 -84.9550 North 154 177 5,600  Level Minneapolis Center
06:51PM 44.6925 -84.9481 North 156 180 5,600 -60 Level Minneapolis Center
06:52PM 44.7358 -84.9400 North 157 181 5,500  Descending Minneapolis Center
06:53PM 44.7781 -84.9322 North 156 180 5,600  Climbing Minneapolis Center
06:54PM 44.8203 -84.9256 North 155 178 5,600  Level Minneapolis Center
06:55PM 44.8617 -84.9189 North 153 176 5,600  Level Minneapolis Center
06:56PM 44.9031 -84.9122 North 151 174 5,600  Level Minneapolis Center
06:57PM 44.9522 -84.9044 North 150 173 5,600  Level Minneapolis Center
06:58PM 44.9947 -84.8958 North 151 174 5,600 -60 Level Minneapolis Center
06:59PM 45.0353 -84.8867 North 151 174 5,500 -60 Descending Minneapolis Center
07:00PM 45.0736 -84.8775 10° North 147 169 5,500  Level Minneapolis Center
07:01PM 45.1117 -84.8681 10° North 144 166 5,600  Climbing Minneapolis Center
07:02PM 45.1511 -84.8642 North 142 163 5,600 -60 Level Minneapolis Center
07:03PM 45.1844 -84.8644 360° North 143 165 5,500 -60 Descending Minneapolis Center
07:04PM 45.2431 -84.8597 North 148 170 5,500  Level Minneapolis Center
07:05PM 45.2847 -84.8458 13° North 151 174 5,600  Climbing Minneapolis Center
07:06PM 45.3253 -84.8306 15° North 152 175 5,500 -60 Descending Minneapolis Center
07:07PM 45.3664 -84.8250 North 150 173 5,500  Level Minneapolis Center
07:09PM 45.4192 -84.8162 North  Level FlightAware Approximate
07:16PM 45.5667 -84.7833 13° North  Level FlightAware Approximate
07:17PM 45.5709 -84.7967 13° North  Level Estimated
07:18PM 45.5709 -84.7967 13° North  Level Estimated
07:19PM 45.5709 -84.7967 13° North  Level Estimated
07:20PM 45.5709 -84.7967 13° North  Level Estimated